sensor_id;sensor_type;location;lat;lon;timestamp;P1;durP1;ratioP1;P2;durP2;ratioP2
5787;SDS011;2920;48.158;12.254;2022-11-20T00:02:18;4.93;;;2.65;;
5787;SDS011;2920;48.158;12.254;2022-11-20T00:04:44;6.18;;;3.30;;
5787;SDS011;2920;48.158;12.254;2022-11-20T00:07:09;6.78;;;2.92;;
5787;SDS011;2920;48.158;12.254;2022-11-20T00:09:34;4.22;;;2.70;;
5787;SDS011;2920;48.158;12.254;2022-11-20T00:12:00;4.45;;;3.03;;
5787;SDS011;2920;48.158;12.254;2022-11-20T00:14:25;6.25;;;3.20;;
5787;SDS011;2920;48.158;12.254;2022-11-20T00:16:50;4.55;;;3.00;;
5787;SDS011;2920;48.158;12.254;2022-11-20T00:19:16;5.00;;;2.70;;
5787;SDS011;2920;48.158;12.254;2022-11-20T00:21:41;5.78;;;3.35;;
5787;SDS011;2920;48.158;12.254;2022-11-20T00:24:07;5.47;;;3.08;;
5787;SDS011;2920;48.158;12.254;2022-11-20T00:26:33;4.32;;;3.05;;
5787;SDS011;2920;48.158;12.254;2022-11-20T00:28:59;5.95;;;3.20;;
5787;SDS011;2920;48.158;12.254;2022-11-20T00:31:25;5.97;;;3.13;;
5787;SDS011;2920;48.158;12.254;2022-11-20T00:33:51;4.20;;;2.70;;
5787;SDS011;2920;48.158;12.254;2022-11-20T00:36:24;3.85;;;2.78;;
5787;SDS011;2920;48.158;12.254;2022-11-20T00:38:51;5.43;;;2.25;;
5787;SDS011;2920;48.158;12.254;2022-11-20T00:41:17;6.95;;;2.97;;
5787;SDS011;2920;48.158;12.254;2022-11-20T00:43:43;5.65;;;3.28;;
5787;SDS011;2920;48.158;12.254;2022-11-20T00:48:40;6.38;;;3.30;;
5787;SDS011;2920;48.158;12.254;2022-11-20T00:51:06;3.80;;;2.80;;
5787;SDS011;2920;48.158;12.254;2022-11-20T00:53:31;5.97;;;3.00;;
5787;SDS011;2920;48.158;12.254;2022-11-20T00:56:04;6.18;;;2.75;;
5787;SDS011;2920;48.158;12.254;2022-11-20T00:58:34;4.13;;;2.70;;
5787;SDS011;2920;48.158;12.254;2022-11-20T01:03:33;4.10;;;3.35;;
5787;SDS011;2920;48.158;12.254;2022-11-20T01:06:03;4.50;;;2.80;;
5787;SDS011;2920;48.158;12.254;2022-11-20T01:08:33;4.63;;;2.70;;
5787;SDS011;2920;48.158;12.254;2022-11-20T01:11:04;3.63;;;2.88;;
5787;SDS011;2920;48.158;12.254;2022-11-20T01:13:30;5.38;;;3.33;;
5787;SDS011;2920;48.158;12.254;2022-11-20T01:16:03;3.50;;;2.40;;
5787;SDS011;2920;48.158;12.254;2022-11-20T01:18:29;4.00;;;2.30;;
5787;SDS011;2920;48.158;12.254;2022-11-20T01:20:55;3.65;;;2.33;;
5787;SDS011;2920;48.158;12.254;2022-11-20T01:23:20;5.63;;;3.00;;
5787;SDS011;2920;48.158;12.254;2022-11-20T01:25:45;5.10;;;2.88;;
5787;SDS011;2920;48.158;12.254;2022-11-20T01:28:11;4.55;;;2.70;;
5787;SDS011;2920;48.158;12.254;2022-11-20T01:30:36;5.60;;;3.30;;
5787;SDS011;2920;48.158;12.254;2022-11-20T01:33:01;4.45;;;2.58;;
5787;SDS011;2920;48.158;12.254;2022-11-20T01:35:26;3.90;;;2.45;;
5787;SDS011;2920;48.158;12.254;2022-11-20T01:37:52;4.75;;;2.50;;
5787;SDS011;2920;48.158;12.254;2022-11-20T01:40:17;7.97;;;2.92;;
5787;SDS011;2920;48.158;12.254;2022-11-20T01:42:45;4.18;;;2.45;;
5787;SDS011;2920;48.158;12.254;2022-11-20T01:48:18;3.75;;;2.22;;
5787;SDS011;2920;48.158;12.254;2022-11-20T01:50:45;4.15;;;2.55;;
5787;SDS011;2920;48.158;12.254;2022-11-20T01:53:12;6.70;;;3.00;;
5787;SDS011;2920;48.158;12.254;2022-11-20T01:55:41;4.95;;;2.70;;
5787;SDS011;2920;48.158;12.254;2022-11-20T01:58:10;3.53;;;2.30;;
5787;SDS011;2920;48.158;12.254;2022-11-20T02:00:36;3.80;;;2.47;;
5787;SDS011;2920;48.158;12.254;2022-11-20T02:03:05;2.83;;;2.30;;
5787;SDS011;2920;48.158;12.254;2022-11-20T02:08:37;3.15;;;2.20;;
5787;SDS011;2920;48.158;12.254;2022-11-20T02:11:02;4.80;;;2.45;;
5787;SDS011;2920;48.158;12.254;2022-11-20T02:13:28;4.55;;;2.38;;
5787;SDS011;2920;48.158;12.254;2022-11-20T02:16:13;3.50;;;2.47;;
5787;SDS011;2920;48.158;12.254;2022-11-20T02:18:40;3.88;;;2.22;;
5787;SDS011;2920;48.158;12.254;2022-11-20T02:21:08;3.17;;;2.05;;
5787;SDS011;2920;48.158;12.254;2022-11-20T02:23:39;8.15;;;2.72;;
5787;SDS011;2920;48.158;12.254;2022-11-20T02:26:27;5.47;;;2.58;;
5787;SDS011;2920;48.158;12.254;2022-11-20T02:28:53;4.03;;;2.78;;
5787;SDS011;2920;48.158;12.254;2022-11-20T02:31:19;3.67;;;2.50;;
5787;SDS011;2920;48.158;12.254;2022-11-20T02:33:44;4.82;;;2.65;;
5787;SDS011;2920;48.158;12.254;2022-11-20T02:36:10;2.85;;;2.17;;
5787;SDS011;2920;48.158;12.254;2022-11-20T02:38:36;5.15;;;2.72;;
5787;SDS011;2920;48.158;12.254;2022-11-20T02:41:02;3.92;;;2.40;;
5787;SDS011;2920;48.158;12.254;2022-11-20T02:43:27;5.45;;;2.70;;
5787;SDS011;2920;48.158;12.254;2022-11-20T02:45:53;6.38;;;2.78;;
5787;SDS011;2920;48.158;12.254;2022-11-20T02:48:18;5.45;;;3.10;;
5787;SDS011;2920;48.158;12.254;2022-11-20T02:50:43;4.20;;;2.70;;
5787;SDS011;2920;48.158;12.254;2022-11-20T02:53:08;4.35;;;3.00;;
5787;SDS011;2920;48.158;12.254;2022-11-20T02:55:34;3.03;;;2.33;;
5787;SDS011;2920;48.158;12.254;2022-11-20T02:58:00;3.03;;;2.25;;
5787;SDS011;2920;48.158;12.254;2022-11-20T03:00:25;3.67;;;2.35;;
5787;SDS011;2920;48.158;12.254;2022-11-20T03:02:50;3.95;;;2.60;;
5787;SDS011;2920;48.158;12.254;2022-11-20T03:05:16;5.07;;;2.40;;
5787;SDS011;2920;48.158;12.254;2022-11-20T03:07:42;5.40;;;2.88;;
5787;SDS011;2920;48.158;12.254;2022-11-20T03:10:08;4.10;;;2.47;;
5787;SDS011;2920;48.158;12.254;2022-11-20T03:12:33;4.13;;;2.60;;
5787;SDS011;2920;48.158;12.254;2022-11-20T03:14:59;5.70;;;2.65;;
5787;SDS011;2920;48.158;12.254;2022-11-20T03:17:24;3.95;;;2.90;;
5787;SDS011;2920;48.158;12.254;2022-11-20T03:19:49;4.18;;;2.60;;
5787;SDS011;2920;48.158;12.254;2022-11-20T03:22:15;5.93;;;2.70;;
5787;SDS011;2920;48.158;12.254;2022-11-20T03:24:40;8.00;;;3.25;;
5787;SDS011;2920;48.158;12.254;2022-11-20T03:27:05;4.32;;;3.20;;
5787;SDS011;2920;48.158;12.254;2022-11-20T03:29:30;8.77;;;2.88;;
5787;SDS011;2920;48.158;12.254;2022-11-20T03:31:56;4.05;;;2.75;;
5787;SDS011;2920;48.158;12.254;2022-11-20T03:34:21;5.65;;;2.78;;
5787;SDS011;2920;48.158;12.254;2022-11-20T03:36:46;5.70;;;2.65;;
5787;SDS011;2920;48.158;12.254;2022-11-20T03:39:12;5.07;;;3.00;;
5787;SDS011;2920;48.158;12.254;2022-11-20T03:41:38;7.63;;;3.30;;
5787;SDS011;2920;48.158;12.254;2022-11-20T03:44:05;4.28;;;2.90;;
5787;SDS011;2920;48.158;12.254;2022-11-20T03:46:32;6.93;;;2.97;;
5787;SDS011;2920;48.158;12.254;2022-11-20T03:48:58;4.72;;;3.13;;
5787;SDS011;2920;48.158;12.254;2022-11-20T03:53:51;4.07;;;2.45;;
5787;SDS011;2920;48.158;12.254;2022-11-20T03:56:17;6.40;;;2.88;;
5787;SDS011;2920;48.158;12.254;2022-11-20T03:58:45;4.95;;;2.85;;
5787;SDS011;2920;48.158;12.254;2022-11-20T04:01:14;3.65;;;2.75;;
5787;SDS011;2920;48.158;12.254;2022-11-20T04:03:41;4.43;;;2.72;;
5787;SDS011;2920;48.158;12.254;2022-11-20T04:06:11;7.82;;;3.08;;
5787;SDS011;2920;48.158;12.254;2022-11-20T04:08:38;6.55;;;2.72;;
5787;SDS011;2920;48.158;12.254;2022-11-20T04:13:38;3.85;;;2.45;;
5787;SDS011;2920;48.158;12.254;2022-11-20T04:16:07;5.50;;;2.92;;
5787;SDS011;2920;48.158;12.254;2022-11-20T04:18:33;6.10;;;2.95;;
5787;SDS011;2920;48.158;12.254;2022-11-20T04:20:59;5.97;;;2.65;;
5787;SDS011;2920;48.158;12.254;2022-11-20T04:23:24;4.00;;;2.78;;
5787;SDS011;2920;48.158;12.254;2022-11-20T04:25:50;6.03;;;3.00;;
5787;SDS011;2920;48.158;12.254;2022-11-20T04:28:15;3.78;;;2.55;;
5787;SDS011;2920;48.158;12.254;2022-11-20T04:30:40;5.72;;;2.92;;
5787;SDS011;2920;48.158;12.254;2022-11-20T04:33:06;5.55;;;3.00;;
5787;SDS011;2920;48.158;12.254;2022-11-20T04:35:35;4.30;;;2.60;;
5787;SDS011;2920;48.158;12.254;2022-11-20T04:38:00;6.20;;;2.53;;
5787;SDS011;2920;48.158;12.254;2022-11-20T04:40:26;5.03;;;3.20;;
5787;SDS011;2920;48.158;12.254;2022-11-20T04:42:52;4.97;;;3.08;;
5787;SDS011;2920;48.158;12.254;2022-11-20T04:45:18;5.40;;;2.63;;
5787;SDS011;2920;48.158;12.254;2022-11-20T04:47:43;3.95;;;2.58;;
5787;SDS011;2920;48.158;12.254;2022-11-20T04:50:08;3.90;;;2.42;;
5787;SDS011;2920;48.158;12.254;2022-11-20T04:52:34;3.70;;;2.70;;
5787;SDS011;2920;48.158;12.254;2022-11-20T04:54:59;4.07;;;2.67;;
5787;SDS011;2920;48.158;12.254;2022-11-20T04:57:24;3.60;;;2.47;;
5787;SDS011;2920;48.158;12.254;2022-11-20T04:59:50;5.25;;;2.47;;
5787;SDS011;2920;48.158;12.254;2022-11-20T05:02:15;4.25;;;2.83;;
5787;SDS011;2920;48.158;12.254;2022-11-20T05:04:40;4.20;;;2.80;;
5787;SDS011;2920;48.158;12.254;2022-11-20T05:07:06;4.30;;;3.13;;
5787;SDS011;2920;48.158;12.254;2022-11-20T05:09:31;3.45;;;2.53;;
5787;SDS011;2920;48.158;12.254;2022-11-20T05:11:56;8.18;;;2.80;;
5787;SDS011;2920;48.158;12.254;2022-11-20T05:14:21;5.20;;;2.70;;
5787;SDS011;2920;48.158;12.254;2022-11-20T05:16:47;3.88;;;2.30;;
5787;SDS011;2920;48.158;12.254;2022-11-20T05:19:12;5.78;;;2.55;;
5787;SDS011;2920;48.158;12.254;2022-11-20T05:21:37;4.38;;;2.65;;
5787;SDS011;2920;48.158;12.254;2022-11-20T05:24:03;4.00;;;2.55;;
5787;SDS011;2920;48.158;12.254;2022-11-20T05:26:29;6.72;;;3.80;;
5787;SDS011;2920;48.158;12.254;2022-11-20T05:28:54;4.35;;;2.55;;
5787;SDS011;2920;48.158;12.254;2022-11-20T05:31:21;3.63;;;2.47;;
5787;SDS011;2920;48.158;12.254;2022-11-20T05:33:47;4.30;;;2.80;;
5787;SDS011;2920;48.158;12.254;2022-11-20T05:36:13;5.50;;;2.83;;
5787;SDS011;2920;48.158;12.254;2022-11-20T05:38:39;3.70;;;2.30;;
5787;SDS011;2920;48.158;12.254;2022-11-20T05:41:06;7.10;;;3.33;;
5787;SDS011;2920;48.158;12.254;2022-11-20T05:43:42;6.63;;;2.75;;
5787;SDS011;2920;48.158;12.254;2022-11-20T05:46:09;7.65;;;3.22;;
5787;SDS011;2920;48.158;12.254;2022-11-20T05:48:36;4.03;;;2.75;;
5787;SDS011;2920;48.158;12.254;2022-11-20T05:51:03;3.78;;;2.58;;
5787;SDS011;2920;48.158;12.254;2022-11-20T05:53:29;5.13;;;2.97;;
5787;SDS011;2920;48.158;12.254;2022-11-20T05:56:28;5.78;;;2.63;;
5787;SDS011;2920;48.158;12.254;2022-11-20T05:58:47;3.88;;;2.60;;
5787;SDS011;2920;48.158;12.254;2022-11-20T06:03:40;4.97;;;3.30;;
5787;SDS011;2920;48.158;12.254;2022-11-20T06:06:07;3.83;;;2.60;;
5787;SDS011;2920;48.158;12.254;2022-11-20T06:08:32;4.55;;;2.75;;
5787;SDS011;2920;48.158;12.254;2022-11-20T06:10:58;5.38;;;3.58;;
5787;SDS011;2920;48.158;12.254;2022-11-20T06:13:28;3.90;;;2.20;;
5787;SDS011;2920;48.158;12.254;2022-11-20T06:15:53;4.75;;;2.50;;
5787;SDS011;2920;48.158;12.254;2022-11-20T06:18:19;4.50;;;2.58;;
5787;SDS011;2920;48.158;12.254;2022-11-20T06:20:45;3.28;;;2.30;;
5787;SDS011;2920;48.158;12.254;2022-11-20T06:23:10;6.25;;;2.60;;
5787;SDS011;2920;48.158;12.254;2022-11-20T06:25:40;4.60;;;3.38;;
5787;SDS011;2920;48.158;12.254;2022-11-20T06:28:05;8.48;;;4.47;;
5787;SDS011;2920;48.158;12.254;2022-11-20T06:30:31;5.57;;;4.32;;
5787;SDS011;2920;48.158;12.254;2022-11-20T06:32:56;4.15;;;3.40;;
5787;SDS011;2920;48.158;12.254;2022-11-20T06:35:21;4.75;;;3.55;;
5787;SDS011;2920;48.158;12.254;2022-11-20T06:37:47;4.18;;;2.92;;
5787;SDS011;2920;48.158;12.254;2022-11-20T06:40:12;5.18;;;3.10;;
5787;SDS011;2920;48.158;12.254;2022-11-20T06:42:37;4.15;;;3.10;;
5787;SDS011;2920;48.158;12.254;2022-11-20T06:45:03;6.05;;;3.40;;
5787;SDS011;2920;48.158;12.254;2022-11-20T06:47:28;4.35;;;2.90;;
5787;SDS011;2920;48.158;12.254;2022-11-20T06:49:53;4.53;;;2.85;;
5787;SDS011;2920;48.158;12.254;2022-11-20T06:52:19;4.22;;;2.88;;
5787;SDS011;2920;48.158;12.254;2022-11-20T06:54:44;3.35;;;2.40;;
5787;SDS011;2920;48.158;12.254;2022-11-20T06:57:09;4.70;;;2.55;;
5787;SDS011;2920;48.158;12.254;2022-11-20T06:59:35;4.18;;;2.70;;
5787;SDS011;2920;48.158;12.254;2022-11-20T07:02:00;3.50;;;2.40;;
5787;SDS011;2920;48.158;12.254;2022-11-20T07:04:25;4.28;;;2.88;;
5787;SDS011;2920;48.158;12.254;2022-11-20T07:06:51;3.42;;;2.40;;
5787;SDS011;2920;48.158;12.254;2022-11-20T07:09:16;3.67;;;2.72;;
5787;SDS011;2920;48.158;12.254;2022-11-20T07:11:41;4.53;;;2.78;;
5787;SDS011;2920;48.158;12.254;2022-11-20T07:14:06;3.67;;;2.50;;
5787;SDS011;2920;48.158;12.254;2022-11-20T07:16:32;4.07;;;2.75;;
5787;SDS011;2920;48.158;12.254;2022-11-20T07:18:57;4.93;;;3.42;;
5787;SDS011;2920;48.158;12.254;2022-11-20T07:21:22;5.45;;;3.83;;
5787;SDS011;2920;48.158;12.254;2022-11-20T07:23:48;5.45;;;3.00;;
5787;SDS011;2920;48.158;12.254;2022-11-20T07:26:13;4.43;;;2.40;;
5787;SDS011;2920;48.158;12.254;2022-11-20T07:28:38;4.18;;;2.70;;
5787;SDS011;2920;48.158;12.254;2022-11-20T07:31:04;4.22;;;2.90;;
5787;SDS011;2920;48.158;12.254;2022-11-20T07:33:29;3.72;;;2.65;;
5787;SDS011;2920;48.158;12.254;2022-11-20T07:35:55;4.90;;;3.25;;
5787;SDS011;2920;48.158;12.254;2022-11-20T07:38:20;4.60;;;2.63;;
5787;SDS011;2920;48.158;12.254;2022-11-20T07:40:46;4.22;;;3.22;;
5787;SDS011;2920;48.158;12.254;2022-11-20T07:43:11;5.25;;;3.20;;
5787;SDS011;2920;48.158;12.254;2022-11-20T07:45:36;5.18;;;3.22;;
5787;SDS011;2920;48.158;12.254;2022-11-20T07:48:02;5.30;;;3.33;;
5787;SDS011;2920;48.158;12.254;2022-11-20T07:50:27;7.97;;;4.13;;
5787;SDS011;2920;48.158;12.254;2022-11-20T07:52:59;16.42;;;9.38;;
5787;SDS011;2920;48.158;12.254;2022-11-20T07:55:25;16.73;;;8.98;;
5787;SDS011;2920;48.158;12.254;2022-11-20T07:57:54;14.00;;;6.80;;
5787;SDS011;2920;48.158;12.254;2022-11-20T08:00:21;16.75;;;8.40;;
5787;SDS011;2920;48.158;12.254;2022-11-20T08:02:46;9.20;;;4.43;;
5787;SDS011;2920;48.158;12.254;2022-11-20T08:05:11;15.48;;;8.63;;
5787;SDS011;2920;48.158;12.254;2022-11-20T08:07:40;13.13;;;6.00;;
5787;SDS011;2920;48.158;12.254;2022-11-20T08:10:09;7.90;;;4.57;;
5787;SDS011;2920;48.158;12.254;2022-11-20T08:12:35;7.13;;;4.10;;
5787;SDS011;2920;48.158;12.254;2022-11-20T08:15:19;7.20;;;4.60;;
5787;SDS011;2920;48.158;12.254;2022-11-20T08:17:45;8.88;;;3.75;;
5787;SDS011;2920;48.158;12.254;2022-11-20T08:20:10;4.35;;;2.95;;
5787;SDS011;2920;48.158;12.254;2022-11-20T08:22:36;5.20;;;3.60;;
5787;SDS011;2920;48.158;12.254;2022-11-20T08:25:01;4.25;;;2.45;;
5787;SDS011;2920;48.158;12.254;2022-11-20T08:27:26;5.82;;;4.03;;
5787;SDS011;2920;48.158;12.254;2022-11-20T08:29:52;3.50;;;2.58;;
5787;SDS011;2920;48.158;12.254;2022-11-20T08:32:17;4.38;;;3.65;;
5787;SDS011;2920;48.158;12.254;2022-11-20T08:34:42;4.68;;;3.00;;
5787;SDS011;2920;48.158;12.254;2022-11-20T08:37:08;4.90;;;3.38;;
5787;SDS011;2920;48.158;12.254;2022-11-20T08:39:33;6.13;;;2.78;;
5787;SDS011;2920;48.158;12.254;2022-11-20T08:41:58;6.85;;;3.78;;
5787;SDS011;2920;48.158;12.254;2022-11-20T08:44:24;4.93;;;2.60;;
5787;SDS011;2920;48.158;12.254;2022-11-20T08:46:49;6.50;;;3.60;;
5787;SDS011;2920;48.158;12.254;2022-11-20T08:49:15;7.50;;;3.83;;
5787;SDS011;2920;48.158;12.254;2022-11-20T08:51:40;8.75;;;3.28;;
5787;SDS011;2920;48.158;12.254;2022-11-20T08:54:06;5.28;;;2.45;;
5787;SDS011;2920;48.158;12.254;2022-11-20T08:56:32;14.07;;;4.38;;
5787;SDS011;2920;48.158;12.254;2022-11-20T08:58:58;4.88;;;2.40;;
5787;SDS011;2920;48.158;12.254;2022-11-20T09:01:26;10.05;;;4.18;;
5787;SDS011;2920;48.158;12.254;2022-11-20T09:03:51;38.88;;;12.30;;
5787;SDS011;2920;48.158;12.254;2022-11-20T09:06:17;7.85;;;4.15;;
5787;SDS011;2920;48.158;12.254;2022-11-20T09:08:42;6.65;;;3.92;;
5787;SDS011;2920;48.158;12.254;2022-11-20T09:11:07;4.85;;;2.38;;
5787;SDS011;2920;48.158;12.254;2022-11-20T09:13:33;4.70;;;2.67;;
5787;SDS011;2920;48.158;12.254;2022-11-20T09:16:00;5.65;;;3.53;;
5787;SDS011;2920;48.158;12.254;2022-11-20T09:18:30;2.65;;;2.17;;
5787;SDS011;2920;48.158;12.254;2022-11-20T09:21:01;3.72;;;1.77;;
5787;SDS011;2920;48.158;12.254;2022-11-20T09:23:31;2.58;;;1.88;;
5787;SDS011;2920;48.158;12.254;2022-11-20T09:25:57;2.85;;;1.67;;
5787;SDS011;2920;48.158;12.254;2022-11-20T09:28:24;2.45;;;1.65;;
5787;SDS011;2920;48.158;12.254;2022-11-20T09:30:50;3.20;;;2.00;;
5787;SDS011;2920;48.158;12.254;2022-11-20T09:33:15;4.10;;;1.80;;
5787;SDS011;2920;48.158;12.254;2022-11-20T09:35:41;2.53;;;1.50;;
5787;SDS011;2920;48.158;12.254;2022-11-20T09:38:08;3.00;;;1.70;;
5787;SDS011;2920;48.158;12.254;2022-11-20T09:40:36;2.20;;;1.67;;
5787;SDS011;2920;48.158;12.254;2022-11-20T09:43:12;2.22;;;1.60;;
5787;SDS011;2920;48.158;12.254;2022-11-20T09:48:36;1.92;;;1.40;;
5787;SDS011;2920;48.158;12.254;2022-11-20T09:56:16;3.20;;;1.60;;
5787;SDS011;2920;48.158;12.254;2022-11-20T09:58:45;5.50;;;1.98;;
5787;SDS011;2920;48.158;12.254;2022-11-20T10:01:18;5.65;;;2.30;;
5787;SDS011;2920;48.158;12.254;2022-11-20T10:06:31;4.95;;;3.25;;
5787;SDS011;2920;48.158;12.254;2022-11-20T10:09:14;5.32;;;2.45;;
5787;SDS011;2920;48.158;12.254;2022-11-20T10:14:25;3.40;;;2.28;;
5787;SDS011;2920;48.158;12.254;2022-11-20T10:23:12;2.45;;;1.85;;
5787;SDS011;2920;48.158;12.254;2022-11-20T10:25:44;3.33;;;2.40;;
5787;SDS011;2920;48.158;12.254;2022-11-20T10:28:17;2.45;;;1.63;;
5787;SDS011;2920;48.158;12.254;2022-11-20T10:30:53;2.00;;;1.50;;
5787;SDS011;2920;48.158;12.254;2022-11-20T10:33:22;2.88;;;1.70;;
5787;SDS011;2920;48.158;12.254;2022-11-20T10:35:55;3.63;;;2.15;;
5787;SDS011;2920;48.158;12.254;2022-11-20T10:38:23;3.00;;;1.90;;
5787;SDS011;2920;48.158;12.254;2022-11-20T10:40:56;3.13;;;1.85;;
5787;SDS011;2920;48.158;12.254;2022-11-20T10:43:42;3.03;;;1.73;;
5787;SDS011;2920;48.158;12.254;2022-11-20T10:46:15;2.13;;;1.45;;
5787;SDS011;2920;48.158;12.254;2022-11-20T10:48:43;2.78;;;1.80;;
5787;SDS011;2920;48.158;12.254;2022-11-20T10:51:12;5.50;;;1.40;;
5787;SDS011;2920;48.158;12.254;2022-11-20T10:54:11;2.17;;;1.63;;
5787;SDS011;2920;48.158;12.254;2022-11-20T11:02:23;2.38;;;1.55;;
5787;SDS011;2920;48.158;12.254;2022-11-20T11:04:50;1.85;;;1.33;;
5787;SDS011;2920;48.158;12.254;2022-11-20T11:07:24;1.73;;;1.20;;
5787;SDS011;2920;48.158;12.254;2022-11-20T11:09:53;1.25;;;1.15;;
5787;SDS011;2920;48.158;12.254;2022-11-20T11:12:20;2.42;;;1.50;;
5787;SDS011;2920;48.158;12.254;2022-11-20T11:14:50;1.30;;;1.13;;
5787;SDS011;2920;48.158;12.254;2022-11-20T11:17:20;2.28;;;1.77;;
5787;SDS011;2920;48.158;12.254;2022-11-20T11:22:45;2.65;;;1.67;;
5787;SDS011;2920;48.158;12.254;2022-11-20T11:27:50;2.03;;;1.40;;
5787;SDS011;2920;48.158;12.254;2022-11-20T11:30:17;2.40;;;1.33;;
5787;SDS011;2920;48.158;12.254;2022-11-20T11:32:44;1.38;;;1.02;;
5787;SDS011;2920;48.158;12.254;2022-11-20T11:35:23;1.52;;;1.05;;
5787;SDS011;2920;48.158;12.254;2022-11-20T11:37:54;1.40;;;1.15;;
5787;SDS011;2920;48.158;12.254;2022-11-20T11:40:27;2.55;;;1.25;;
5787;SDS011;2920;48.158;12.254;2022-11-20T11:43:00;4.20;;;1.17;;
5787;SDS011;2920;48.158;12.254;2022-11-20T11:45:27;1.30;;;0.90;;
5787;SDS011;2920;48.158;12.254;2022-11-20T11:47:53;1.08;;;0.80;;
5787;SDS011;2920;48.158;12.254;2022-11-20T11:50:22;1.00;;;0.90;;
5787;SDS011;2920;48.158;12.254;2022-11-20T12:01:07;0.73;;;0.70;;
5787;SDS011;2920;48.158;12.254;2022-11-20T12:03:42;1.90;;;1.45;;
5787;SDS011;2920;48.158;12.254;2022-11-20T12:06:17;1.45;;;0.90;;
5787;SDS011;2920;48.158;12.254;2022-11-20T12:11:32;1.52;;;0.70;;
5787;SDS011;2920;48.158;12.254;2022-11-20T12:13:58;0.43;;;0.43;;
5787;SDS011;2920;48.158;12.254;2022-11-20T12:16:29;1.52;;;1.00;;
5787;SDS011;2920;48.158;12.254;2022-11-20T12:18:57;2.40;;;0.70;;
5787;SDS011;2920;48.158;12.254;2022-11-20T12:24:10;1.08;;;0.80;;
5787;SDS011;2920;48.158;12.254;2022-11-20T12:41:18;0.77;;;0.77;;
5787;SDS011;2920;48.158;12.254;2022-11-20T12:47:14;0.88;;;0.70;;
5787;SDS011;2920;48.158;12.254;2022-11-20T12:49:59;1.15;;;0.90;;
5787;SDS011;2920;48.158;12.254;2022-11-20T12:52:35;0.93;;;0.70;;
5787;SDS011;2920;48.158;12.254;2022-11-20T13:00:18;1.00;;;0.82;;
5787;SDS011;2920;48.158;12.254;2022-11-20T13:08:20;1.42;;;0.93;;
5787;SDS011;2920;48.158;12.254;2022-11-20T13:11:13;1.42;;;0.95;;
5787;SDS011;2920;48.158;12.254;2022-11-20T13:19:15;2.67;;;0.70;;
5787;SDS011;2920;48.158;12.254;2022-11-20T13:21:42;0.95;;;0.80;;
5787;SDS011;2920;48.158;12.254;2022-11-20T13:27:02;1.80;;;1.38;;
5787;SDS011;2920;48.158;12.254;2022-11-20T13:29:29;1.60;;;0.88;;
5787;SDS011;2920;48.158;12.254;2022-11-20T13:34:38;1.73;;;1.60;;
5787;SDS011;2920;48.158;12.254;2022-11-20T13:37:04;1.85;;;1.52;;
5787;SDS011;2920;48.158;12.254;2022-11-20T13:39:30;2.10;;;1.40;;
5787;SDS011;2920;48.158;12.254;2022-11-20T13:42:20;2.25;;;1.48;;
5787;SDS011;2920;48.158;12.254;2022-11-20T13:44:53;2.17;;;1.20;;
5787;SDS011;2920;48.158;12.254;2022-11-20T13:47:20;6.13;;;2.40;;
5787;SDS011;2920;48.158;12.254;2022-11-20T13:49:50;7.22;;;3.55;;
5787;SDS011;2920;48.158;12.254;2022-11-20T14:00:27;3.63;;;2.17;;
5787;SDS011;2920;48.158;12.254;2022-11-20T14:05:26;2.00;;;1.70;;
5787;SDS011;2920;48.158;12.254;2022-11-20T14:07:52;1.30;;;1.20;;
5787;SDS011;2920;48.158;12.254;2022-11-20T14:10:19;1.70;;;1.23;;
5787;SDS011;2920;48.158;12.254;2022-11-20T14:12:48;1.80;;;1.10;;
5787;SDS011;2920;48.158;12.254;2022-11-20T14:17:52;1.55;;;1.13;;
5787;SDS011;2920;48.158;12.254;2022-11-20T14:20:18;1.85;;;1.25;;
5787;SDS011;2920;48.158;12.254;2022-11-20T14:22:48;1.90;;;1.20;;
5787;SDS011;2920;48.158;12.254;2022-11-20T14:27:41;2.03;;;1.35;;
5787;SDS011;2920;48.158;12.254;2022-11-20T14:30:14;1.63;;;1.23;;
5787;SDS011;2920;48.158;12.254;2022-11-20T14:32:41;1.20;;;1.00;;
5787;SDS011;2920;48.158;12.254;2022-11-20T14:35:08;1.63;;;1.23;;
5787;SDS011;2920;48.158;12.254;2022-11-20T14:37:36;2.75;;;1.23;;
5787;SDS011;2920;48.158;12.254;2022-11-20T14:40:02;1.85;;;1.13;;
5787;SDS011;2920;48.158;12.254;2022-11-20T14:42:43;2.78;;;1.20;;
5787;SDS011;2920;48.158;12.254;2022-11-20T14:45:11;1.75;;;1.65;;
5787;SDS011;2920;48.158;12.254;2022-11-20T14:47:36;1.13;;;0.90;;
5787;SDS011;2920;48.158;12.254;2022-11-20T14:50:02;1.30;;;1.13;;
5787;SDS011;2920;48.158;12.254;2022-11-20T14:52:27;1.73;;;1.42;;
5787;SDS011;2920;48.158;12.254;2022-11-20T14:54:56;1.40;;;1.30;;
5787;SDS011;2920;48.158;12.254;2022-11-20T14:57:29;1.90;;;1.58;;
5787;SDS011;2920;48.158;12.254;2022-11-20T15:00:06;2.95;;;1.15;;
5787;SDS011;2920;48.158;12.254;2022-11-20T15:02:44;2.75;;;1.58;;
5787;SDS011;2920;48.158;12.254;2022-11-20T15:05:10;4.28;;;1.50;;
5787;SDS011;2920;48.158;12.254;2022-11-20T15:07:40;4.10;;;1.35;;
5787;SDS011;2920;48.158;12.254;2022-11-20T15:10:11;1.65;;;1.30;;
5787;SDS011;2920;48.158;12.254;2022-11-20T15:12:40;1.52;;;1.25;;
5787;SDS011;2920;48.158;12.254;2022-11-20T15:15:11;1.80;;;1.10;;
5787;SDS011;2920;48.158;12.254;2022-11-20T15:17:37;2.80;;;1.20;;
5787;SDS011;2920;48.158;12.254;2022-11-20T15:20:03;2.15;;;1.95;;
5787;SDS011;2920;48.158;12.254;2022-11-20T15:22:34;3.05;;;2.42;;
5787;SDS011;2920;48.158;12.254;2022-11-20T15:25:00;5.88;;;3.40;;
5787;SDS011;2920;48.158;12.254;2022-11-20T15:27:26;3.42;;;2.13;;
5787;SDS011;2920;48.158;12.254;2022-11-20T15:29:51;3.10;;;2.20;;
5787;SDS011;2920;48.158;12.254;2022-11-20T15:32:17;2.70;;;1.70;;
5787;SDS011;2920;48.158;12.254;2022-11-20T15:34:42;3.05;;;1.80;;
5787;SDS011;2920;48.158;12.254;2022-11-20T15:37:07;2.72;;;1.33;;
5787;SDS011;2920;48.158;12.254;2022-11-20T15:39:32;1.70;;;1.30;;
5787;SDS011;2920;48.158;12.254;2022-11-20T15:41:58;1.77;;;1.60;;
5787;SDS011;2920;48.158;12.254;2022-11-20T15:44:23;2.75;;;1.60;;
5787;SDS011;2920;48.158;12.254;2022-11-20T15:46:48;1.95;;;1.40;;
5787;SDS011;2920;48.158;12.254;2022-11-20T15:49:15;1.77;;;1.63;;
5787;SDS011;2920;48.158;12.254;2022-11-20T15:51:42;1.40;;;1.20;;
5787;SDS011;2920;48.158;12.254;2022-11-20T15:54:12;2.33;;;1.30;;
5787;SDS011;2920;48.158;12.254;2022-11-20T15:56:38;1.85;;;1.40;;
5787;SDS011;2920;48.158;12.254;2022-11-20T15:59:04;4.47;;;1.45;;
5787;SDS011;2920;48.158;12.254;2022-11-20T16:01:29;2.58;;;1.60;;
5787;SDS011;2920;48.158;12.254;2022-11-20T16:03:55;2.88;;;1.73;;
5787;SDS011;2920;48.158;12.254;2022-11-20T16:06:20;2.13;;;1.50;;
5787;SDS011;2920;48.158;12.254;2022-11-20T16:08:45;2.22;;;1.38;;
5787;SDS011;2920;48.158;12.254;2022-11-20T16:11:12;4.63;;;1.45;;
5787;SDS011;2920;48.158;12.254;2022-11-20T16:13:39;4.60;;;1.30;;
5787;SDS011;2920;48.158;12.254;2022-11-20T16:16:25;2.17;;;1.73;;
5787;SDS011;2920;48.158;12.254;2022-11-20T16:18:53;7.78;;;3.80;;
5787;SDS011;2920;48.158;12.254;2022-11-20T16:21:19;2.95;;;1.70;;
5787;SDS011;2920;48.158;12.254;2022-11-20T16:23:44;3.28;;;2.28;;
5787;SDS011;2920;48.158;12.254;2022-11-20T16:26:13;4.05;;;2.38;;
5787;SDS011;2920;48.158;12.254;2022-11-20T16:28:40;2.17;;;1.58;;
5787;SDS011;2920;48.158;12.254;2022-11-20T16:31:12;3.50;;;2.03;;
5787;SDS011;2920;48.158;12.254;2022-11-20T16:33:39;3.47;;;1.73;;
5787;SDS011;2920;48.158;12.254;2022-11-20T16:38:33;5.47;;;2.33;;
5787;SDS011;2920;48.158;12.254;2022-11-20T16:41:02;3.17;;;1.80;;
5787;SDS011;2920;48.158;12.254;2022-11-20T16:43:28;1.90;;;1.40;;
5787;SDS011;2920;48.158;12.254;2022-11-20T16:45:53;2.30;;;1.50;;
5787;SDS011;2920;48.158;12.254;2022-11-20T16:48:18;2.95;;;1.70;;
5787;SDS011;2920;48.158;12.254;2022-11-20T16:50:44;2.15;;;1.55;;
5787;SDS011;2920;48.158;12.254;2022-11-20T16:53:12;3.75;;;1.65;;
5787;SDS011;2920;48.158;12.254;2022-11-20T16:55:37;3.05;;;1.52;;
5787;SDS011;2920;48.158;12.254;2022-11-20T16:58:02;2.90;;;1.40;;
5787;SDS011;2920;48.158;12.254;2022-11-20T17:00:27;2.90;;;1.50;;
5787;SDS011;2920;48.158;12.254;2022-11-20T17:02:53;2.10;;;1.20;;
5787;SDS011;2920;48.158;12.254;2022-11-20T17:05:18;7.75;;;1.35;;